TAF BGMQ 050751Z 0508/0515 08008KT 9999 BKN015
TEMPO 0508/0515 6000 -SN SCT015
From batch tds/tafs/production/2024/2/5/h08_m00_tafs.cache.xml.gz
Issued (18 days ago)
Forecasts
0508/0515 8008KT 6+SM BKN1500

---
fcst_time_to: '2024-02-05T15:00:00Z'
sky_condition:
- sky_cover: BKN
  cloud_base_ft_agl: '1500'
wind_speed_kt: '8'
fcst_time_from: '2024-02-05T08:00:00Z'
wind_dir_degrees: '80'
visibility_statute_mi: 6+

TEMPO 0508/0515 SCT1500

---
wx_string: "-SN"
fcst_time_to: '2024-02-05T15:00:00Z'
sky_condition:
- sky_cover: SCT
  cloud_base_ft_agl: '1500'
fcst_time_from: '2024-02-05T08:00:00Z'
change_indicator: TEMPO
visibility_statute_mi: '3.73'

talk